sensor_id;sensor_type;location;lat;lon;timestamp;P1;durP1;ratioP1;P2;durP2;ratioP2
7330;SDS011;3706;49.198;7.064;2022-09-12T00:01:14;6.90;;;6.20;;
7330;SDS011;3706;49.198;7.064;2022-09-12T00:03:43;6.83;;;6.13;;
7330;SDS011;3706;49.198;7.064;2022-09-12T00:06:13;8.57;;;7.13;;
7330;SDS011;3706;49.198;7.064;2022-09-12T00:08:42;12.47;;;7.23;;
7330;SDS011;3706;49.198;7.064;2022-09-12T00:11:10;9.10;;;6.63;;
7330;SDS011;3706;49.198;7.064;2022-09-12T00:13:38;8.00;;;7.03;;
7330;SDS011;3706;49.198;7.064;2022-09-12T00:16:11;6.73;;;6.00;;
7330;SDS011;3706;49.198;7.064;2022-09-12T00:18:40;7.17;;;6.27;;
7330;SDS011;3706;49.198;7.064;2022-09-12T00:21:08;8.07;;;6.93;;
7330;SDS011;3706;49.198;7.064;2022-09-12T00:23:36;12.37;;;6.80;;
7330;SDS011;3706;49.198;7.064;2022-09-12T00:26:03;7.43;;;6.63;;
7330;SDS011;3706;49.198;7.064;2022-09-12T00:28:32;9.67;;;7.07;;
7330;SDS011;3706;49.198;7.064;2022-09-12T00:31:02;8.93;;;7.80;;
7330;SDS011;3706;49.198;7.064;2022-09-12T00:33:29;8.90;;;7.50;;
7330;SDS011;3706;49.198;7.064;2022-09-12T00:35:56;7.83;;;6.13;;
7330;SDS011;3706;49.198;7.064;2022-09-12T00:38:23;7.20;;;6.50;;
7330;SDS011;3706;49.198;7.064;2022-09-12T00:40:51;7.40;;;5.97;;
7330;SDS011;3706;49.198;7.064;2022-09-12T00:43:32;7.53;;;6.80;;
7330;SDS011;3706;49.198;7.064;2022-09-12T00:46:01;9.40;;;6.70;;
7330;SDS011;3706;49.198;7.064;2022-09-12T00:48:32;7.00;;;6.30;;
7330;SDS011;3706;49.198;7.064;2022-09-12T00:51:04;8.63;;;6.60;;
7330;SDS011;3706;49.198;7.064;2022-09-12T00:53:31;13.83;;;6.97;;
7330;SDS011;3706;49.198;7.064;2022-09-12T00:56:00;17.47;;;7.23;;
7330;SDS011;3706;49.198;7.064;2022-09-12T00:58:28;8.63;;;7.27;;
7330;SDS011;3706;49.198;7.064;2022-09-12T01:01:00;8.47;;;7.37;;
7330;SDS011;3706;49.198;7.064;2022-09-12T01:03:28;12.47;;;7.63;;
7330;SDS011;3706;49.198;7.064;2022-09-12T01:05:58;8.07;;;6.90;;
7330;SDS011;3706;49.198;7.064;2022-09-12T01:08:28;9.33;;;6.93;;
7330;SDS011;3706;49.198;7.064;2022-09-12T01:10:55;8.03;;;6.97;;
7330;SDS011;3706;49.198;7.064;2022-09-12T01:13:24;10.30;;;6.87;;
7330;SDS011;3706;49.198;7.064;2022-09-12T01:15:52;7.37;;;6.67;;
7330;SDS011;3706;49.198;7.064;2022-09-12T01:18:20;8.83;;;6.70;;
7330;SDS011;3706;49.198;7.064;2022-09-12T01:20:57;8.57;;;6.87;;
7330;SDS011;3706;49.198;7.064;2022-09-12T01:32:52;9.87;;;6.93;;
7330;SDS011;3706;49.198;7.064;2022-09-12T01:35:26;7.73;;;6.57;;
7330;SDS011;3706;49.198;7.064;2022-09-12T01:38:01;7.47;;;6.33;;
7330;SDS011;3706;49.198;7.064;2022-09-12T01:40:36;8.47;;;6.80;;
7330;SDS011;3706;49.198;7.064;2022-09-12T01:43:11;7.23;;;6.53;;
7330;SDS011;3706;49.198;7.064;2022-09-12T01:45:44;7.40;;;6.53;;
7330;SDS011;3706;49.198;7.064;2022-09-12T01:48:18;8.43;;;6.57;;
7330;SDS011;3706;49.198;7.064;2022-09-12T01:50:49;6.83;;;6.00;;
7330;SDS011;3706;49.198;7.064;2022-09-12T01:53:19;7.90;;;6.63;;
7330;SDS011;3706;49.198;7.064;2022-09-12T01:55:51;8.77;;;6.83;;
7330;SDS011;3706;49.198;7.064;2022-09-12T01:58:22;7.67;;;6.73;;
7330;SDS011;3706;49.198;7.064;2022-09-12T02:00:55;13.27;;;6.93;;
7330;SDS011;3706;49.198;7.064;2022-09-12T02:03:29;6.53;;;5.93;;
7330;SDS011;3706;49.198;7.064;2022-09-12T02:05:59;8.13;;;6.80;;
7330;SDS011;3706;49.198;7.064;2022-09-12T02:08:31;8.40;;;6.50;;
7330;SDS011;3706;49.198;7.064;2022-09-12T02:11:04;7.87;;;6.87;;
7330;SDS011;3706;49.198;7.064;2022-09-12T02:13:34;8.27;;;6.97;;
7330;SDS011;3706;49.198;7.064;2022-09-12T02:16:08;8.23;;;7.43;;
7330;SDS011;3706;49.198;7.064;2022-09-12T02:18:38;9.03;;;7.27;;
7330;SDS011;3706;49.198;7.064;2022-09-12T02:21:09;9.60;;;7.10;;
7330;SDS011;3706;49.198;7.064;2022-09-12T02:23:37;9.90;;;7.53;;
7330;SDS011;3706;49.198;7.064;2022-09-12T02:26:09;7.53;;;6.70;;
7330;SDS011;3706;49.198;7.064;2022-09-12T02:28:40;12.10;;;7.53;;
7330;SDS011;3706;49.198;7.064;2022-09-12T02:31:11;10.20;;;7.50;;
7330;SDS011;3706;49.198;7.064;2022-09-12T02:33:47;8.50;;;7.43;;
7330;SDS011;3706;49.198;7.064;2022-09-12T02:36:22;8.33;;;7.43;;
7330;SDS011;3706;49.198;7.064;2022-09-12T02:38:59;7.70;;;6.90;;
7330;SDS011;3706;49.198;7.064;2022-09-12T02:41:26;8.37;;;6.27;;
7330;SDS011;3706;49.198;7.064;2022-09-12T02:43:53;8.73;;;5.97;;
7330;SDS011;3706;49.198;7.064;2022-09-12T02:46:22;6.70;;;6.03;;
7330;SDS011;3706;49.198;7.064;2022-09-12T02:48:53;7.73;;;6.77;;
7330;SDS011;3706;49.198;7.064;2022-09-12T02:51:22;7.80;;;6.67;;
7330;SDS011;3706;49.198;7.064;2022-09-12T02:53:50;7.87;;;6.50;;
7330;SDS011;3706;49.198;7.064;2022-09-12T02:56:17;10.33;;;7.20;;
7330;SDS011;3706;49.198;7.064;2022-09-12T02:58:48;9.33;;;7.00;;
7330;SDS011;3706;49.198;7.064;2022-09-12T03:01:18;7.60;;;6.80;;
7330;SDS011;3706;49.198;7.064;2022-09-12T03:04:02;12.87;;;6.87;;
7330;SDS011;3706;49.198;7.064;2022-09-12T03:06:41;9.13;;;6.53;;
7330;SDS011;3706;49.198;7.064;2022-09-12T03:09:17;8.83;;;6.73;;
7330;SDS011;3706;49.198;7.064;2022-09-12T03:11:56;7.40;;;6.33;;
7330;SDS011;3706;49.198;7.064;2022-09-12T03:14:35;12.00;;;7.03;;
7330;SDS011;3706;49.198;7.064;2022-09-12T03:17:18;10.87;;;7.07;;
7330;SDS011;3706;49.198;7.064;2022-09-12T03:19:53;6.87;;;6.10;;
7330;SDS011;3706;49.198;7.064;2022-09-12T03:22:27;9.10;;;6.13;;
7330;SDS011;3706;49.198;7.064;2022-09-12T03:25:01;9.37;;;6.30;;
7330;SDS011;3706;49.198;7.064;2022-09-12T03:27:36;8.57;;;6.67;;
7330;SDS011;3706;49.198;7.064;2022-09-12T03:30:09;7.13;;;5.90;;
7330;SDS011;3706;49.198;7.064;2022-09-12T03:32:40;8.20;;;7.30;;
7330;SDS011;3706;49.198;7.064;2022-09-12T03:35:12;7.90;;;7.10;;
7330;SDS011;3706;49.198;7.064;2022-09-12T03:37:41;7.30;;;6.60;;
7330;SDS011;3706;49.198;7.064;2022-09-12T03:40:08;7.93;;;6.17;;
7330;SDS011;3706;49.198;7.064;2022-09-12T03:42:36;9.50;;;6.87;;
7330;SDS011;3706;49.198;7.064;2022-09-12T03:45:03;7.97;;;6.80;;
7330;SDS011;3706;49.198;7.064;2022-09-12T03:47:31;8.53;;;6.20;;
7330;SDS011;3706;49.198;7.064;2022-09-12T03:49:58;7.30;;;6.60;;
7330;SDS011;3706;49.198;7.064;2022-09-12T03:52:26;7.27;;;6.57;;
7330;SDS011;3706;49.198;7.064;2022-09-12T03:54:53;10.43;;;7.20;;
7330;SDS011;3706;49.198;7.064;2022-09-12T03:57:20;6.73;;;6.03;;
7330;SDS011;3706;49.198;7.064;2022-09-12T03:59:47;8.53;;;6.90;;
7330;SDS011;3706;49.198;7.064;2022-09-12T04:02:14;9.43;;;7.27;;
7330;SDS011;3706;49.198;7.064;2022-09-12T04:04:41;7.73;;;6.93;;
7330;SDS011;3706;49.198;7.064;2022-09-12T04:07:13;8.63;;;6.60;;
7330;SDS011;3706;49.198;7.064;2022-09-12T04:09:41;8.80;;;6.67;;
7330;SDS011;3706;49.198;7.064;2022-09-12T04:12:08;8.90;;;6.63;;
7330;SDS011;3706;49.198;7.064;2022-09-12T04:14:36;7.77;;;6.90;;
7330;SDS011;3706;49.198;7.064;2022-09-12T04:17:03;9.40;;;7.20;;
7330;SDS011;3706;49.198;7.064;2022-09-12T04:19:30;8.73;;;7.60;;
7330;SDS011;3706;49.198;7.064;2022-09-12T04:21:57;8.43;;;6.97;;
7330;SDS011;3706;49.198;7.064;2022-09-12T04:24:24;10.27;;;7.00;;
7330;SDS011;3706;49.198;7.064;2022-09-12T04:26:52;8.57;;;6.93;;
7330;SDS011;3706;49.198;7.064;2022-09-12T04:29:19;8.80;;;7.37;;
7330;SDS011;3706;49.198;7.064;2022-09-12T04:31:46;7.17;;;6.47;;
7330;SDS011;3706;49.198;7.064;2022-09-12T04:34:13;8.03;;;6.63;;
7330;SDS011;3706;49.198;7.064;2022-09-12T04:36:40;6.60;;;6.00;;
7330;SDS011;3706;49.198;7.064;2022-09-12T04:39:09;8.10;;;6.87;;
7330;SDS011;3706;49.198;7.064;2022-09-12T04:41:37;6.90;;;6.00;;
7330;SDS011;3706;49.198;7.064;2022-09-12T04:44:07;7.07;;;6.37;;
7330;SDS011;3706;49.198;7.064;2022-09-12T04:46:37;7.50;;;6.70;;
7330;SDS011;3706;49.198;7.064;2022-09-12T04:49:05;8.57;;;6.60;;
7330;SDS011;3706;49.198;7.064;2022-09-12T04:51:34;9.80;;;7.00;;
7330;SDS011;3706;49.198;7.064;2022-09-12T04:54:03;7.47;;;6.50;;
7330;SDS011;3706;49.198;7.064;2022-09-12T04:56:31;8.97;;;7.37;;
7330;SDS011;3706;49.198;7.064;2022-09-12T04:58:59;9.03;;;6.60;;
7330;SDS011;3706;49.198;7.064;2022-09-12T05:01:28;8.97;;;7.20;;
7330;SDS011;3706;49.198;7.064;2022-09-12T05:03:55;11.03;;;7.10;;
7330;SDS011;3706;49.198;7.064;2022-09-12T05:06:24;7.80;;;7.00;;
7330;SDS011;3706;49.198;7.064;2022-09-12T05:08:53;9.57;;;7.57;;
7330;SDS011;3706;49.198;7.064;2022-09-12T05:11:22;8.30;;;7.17;;
7330;SDS011;3706;49.198;7.064;2022-09-12T05:13:50;10.10;;;8.17;;
7330;SDS011;3706;49.198;7.064;2022-09-12T05:16:17;7.67;;;6.87;;
7330;SDS011;3706;49.198;7.064;2022-09-12T05:18:47;9.67;;;7.63;;
7330;SDS011;3706;49.198;7.064;2022-09-12T05:21:15;7.97;;;7.13;;
7330;SDS011;3706;49.198;7.064;2022-09-12T05:23:43;7.90;;;7.10;;
7330;SDS011;3706;49.198;7.064;2022-09-12T05:26:12;7.63;;;6.83;;
7330;SDS011;3706;49.198;7.064;2022-09-12T05:28:40;11.03;;;7.43;;
7330;SDS011;3706;49.198;7.064;2022-09-12T05:31:09;10.40;;;7.13;;
7330;SDS011;3706;49.198;7.064;2022-09-12T05:33:38;10.30;;;7.30;;
7330;SDS011;3706;49.198;7.064;2022-09-12T05:36:09;8.80;;;6.90;;
7330;SDS011;3706;49.198;7.064;2022-09-12T05:38:38;7.27;;;6.53;;
7330;SDS011;3706;49.198;7.064;2022-09-12T05:41:05;8.07;;;7.10;;
7330;SDS011;3706;49.198;7.064;2022-09-12T05:43:34;9.73;;;6.43;;
7330;SDS011;3706;49.198;7.064;2022-09-12T05:46:02;11.80;;;6.53;;
7330;SDS011;3706;49.198;7.064;2022-09-12T05:48:32;8.57;;;6.37;;
7330;SDS011;3706;49.198;7.064;2022-09-12T05:50:59;7.23;;;6.40;;
7330;SDS011;3706;49.198;7.064;2022-09-12T05:53:29;7.20;;;6.50;;
7330;SDS011;3706;49.198;7.064;2022-09-12T05:56:06;7.20;;;6.50;;
7330;SDS011;3706;49.198;7.064;2022-09-12T05:58:36;9.20;;;6.70;;
7330;SDS011;3706;49.198;7.064;2022-09-12T06:01:04;8.67;;;6.60;;
7330;SDS011;3706;49.198;7.064;2022-09-12T06:03:33;9.03;;;6.70;;
7330;SDS011;3706;49.198;7.064;2022-09-12T06:06:01;6.03;;;5.43;;
7330;SDS011;3706;49.198;7.064;2022-09-12T06:08:31;7.70;;;5.57;;
7330;SDS011;3706;49.198;7.064;2022-09-12T06:11:00;5.63;;;5.07;;
7330;SDS011;3706;49.198;7.064;2022-09-12T06:13:27;5.40;;;4.60;;
7330;SDS011;3706;49.198;7.064;2022-09-12T06:16:01;5.03;;;4.57;;
7330;SDS011;3706;49.198;7.064;2022-09-12T06:18:29;4.73;;;4.33;;
7330;SDS011;3706;49.198;7.064;2022-09-12T06:20:56;4.20;;;3.80;;
7330;SDS011;3706;49.198;7.064;2022-09-12T06:23:23;5.70;;;4.80;;
7330;SDS011;3706;49.198;7.064;2022-09-12T06:25:52;4.83;;;3.97;;
7330;SDS011;3706;49.198;7.064;2022-09-12T06:28:19;4.27;;;3.87;;
7330;SDS011;3706;49.198;7.064;2022-09-12T06:30:46;6.47;;;4.10;;
7330;SDS011;3706;49.198;7.064;2022-09-12T06:33:14;4.90;;;4.03;;
7330;SDS011;3706;49.198;7.064;2022-09-12T06:35:41;7.07;;;4.17;;
7330;SDS011;3706;49.198;7.064;2022-09-12T06:38:08;4.77;;;4.33;;
7330;SDS011;3706;49.198;7.064;2022-09-12T06:40:39;4.97;;;4.23;;
7330;SDS011;3706;49.198;7.064;2022-09-12T06:43:10;5.33;;;4.83;;
7330;SDS011;3706;49.198;7.064;2022-09-12T06:45:37;4.43;;;3.57;;
7330;SDS011;3706;49.198;7.064;2022-09-12T06:48:04;5.23;;;3.73;;
7330;SDS011;3706;49.198;7.064;2022-09-12T06:50:31;4.93;;;4.43;;
7330;SDS011;3706;49.198;7.064;2022-09-12T06:52:58;4.47;;;4.07;;
7330;SDS011;3706;49.198;7.064;2022-09-12T06:55:25;5.17;;;3.23;;
7330;SDS011;3706;49.198;7.064;2022-09-12T06:57:53;4.37;;;3.93;;
7330;SDS011;3706;49.198;7.064;2022-09-12T07:00:21;4.67;;;3.90;;
7330;SDS011;3706;49.198;7.064;2022-09-12T07:02:52;5.57;;;4.20;;
7330;SDS011;3706;49.198;7.064;2022-09-12T07:05:19;5.03;;;4.63;;
7330;SDS011;3706;49.198;7.064;2022-09-12T07:07:46;4.10;;;3.80;;
7330;SDS011;3706;49.198;7.064;2022-09-12T07:10:13;4.27;;;3.97;;
7330;SDS011;3706;49.198;7.064;2022-09-12T07:12:40;4.03;;;3.30;;
7330;SDS011;3706;49.198;7.064;2022-09-12T07:15:08;3.93;;;3.53;;
7330;SDS011;3706;49.198;7.064;2022-09-12T07:17:37;4.63;;;4.20;;
7330;SDS011;3706;49.198;7.064;2022-09-12T07:20:04;5.50;;;3.83;;
7330;SDS011;3706;49.198;7.064;2022-09-12T07:22:32;3.90;;;3.60;;
7330;SDS011;3706;49.198;7.064;2022-09-12T07:24:58;5.07;;;3.83;;
7330;SDS011;3706;49.198;7.064;2022-09-12T07:27:26;3.58;;;3.25;;
7330;SDS011;3706;49.198;7.064;2022-09-12T07:29:52;3.75;;;3.45;;
7330;SDS011;3706;49.198;7.064;2022-09-12T07:32:20;3.92;;;3.55;;
7330;SDS011;3706;49.198;7.064;2022-09-12T07:34:48;4.10;;;3.80;;
7330;SDS011;3706;49.198;7.064;2022-09-12T07:37:16;4.25;;;3.85;;
7330;SDS011;3706;49.198;7.064;2022-09-12T07:39:43;4.53;;;3.63;;
7330;SDS011;3706;49.198;7.064;2022-09-12T07:42:10;5.55;;;4.22;;
7330;SDS011;3706;49.198;7.064;2022-09-12T07:44:37;5.53;;;3.58;;
7330;SDS011;3706;49.198;7.064;2022-09-12T07:47:04;5.40;;;3.70;;
7330;SDS011;3706;49.198;7.064;2022-09-12T07:49:31;4.38;;;3.30;;
7330;SDS011;3706;49.198;7.064;2022-09-12T07:52:01;4.00;;;3.70;;
7330;SDS011;3706;49.198;7.064;2022-09-12T07:54:28;4.70;;;3.90;;
7330;SDS011;3706;49.198;7.064;2022-09-12T07:56:57;4.30;;;3.67;;
7330;SDS011;3706;49.198;7.064;2022-09-12T07:59:24;3.92;;;3.63;;
7330;SDS011;3706;49.198;7.064;2022-09-12T08:01:52;5.05;;;3.65;;
7330;SDS011;3706;49.198;7.064;2022-09-12T08:04:19;3.80;;;3.50;;
7330;SDS011;3706;49.198;7.064;2022-09-12T08:06:46;3.90;;;3.50;;
7330;SDS011;3706;49.198;7.064;2022-09-12T08:09:14;4.47;;;3.78;;
7330;SDS011;3706;49.198;7.064;2022-09-12T08:11:41;4.10;;;3.42;;
7330;SDS011;3706;49.198;7.064;2022-09-12T08:14:09;3.55;;;2.90;;
7330;SDS011;3706;49.198;7.064;2022-09-12T08:16:35;3.33;;;3.03;;
7330;SDS011;3706;49.198;7.064;2022-09-12T08:19:03;3.20;;;2.83;;
7330;SDS011;3706;49.198;7.064;2022-09-12T08:21:31;4.88;;;3.20;;
7330;SDS011;3706;49.198;7.064;2022-09-12T08:23:58;4.60;;;2.95;;
7330;SDS011;3706;49.198;7.064;2022-09-12T08:26:28;5.35;;;2.65;;
7330;SDS011;3706;49.198;7.064;2022-09-12T08:28:56;3.38;;;3.08;;
7330;SDS011;3706;49.198;7.064;2022-09-12T08:31:24;2.90;;;2.70;;
7330;SDS011;3706;49.198;7.064;2022-09-12T08:33:53;2.90;;;2.70;;
7330;SDS011;3706;49.198;7.064;2022-09-12T08:36:21;3.58;;;2.50;;
7330;SDS011;3706;49.198;7.064;2022-09-12T08:38:49;3.40;;;2.40;;
7330;SDS011;3706;49.198;7.064;2022-09-12T08:41:21;2.42;;;2.22;;
7330;SDS011;3706;49.198;7.064;2022-09-12T08:43:57;2.70;;;2.50;;
7330;SDS011;3706;49.198;7.064;2022-09-12T08:46:39;2.40;;;2.03;;
7330;SDS011;3706;49.198;7.064;2022-09-12T08:49:18;4.75;;;2.38;;
7330;SDS011;3706;49.198;7.064;2022-09-12T08:51:52;3.05;;;2.30;;
7330;SDS011;3706;49.198;7.064;2022-09-12T08:54:22;2.60;;;2.40;;
7330;SDS011;3706;49.198;7.064;2022-09-12T08:56:51;2.60;;;2.40;;
7330;SDS011;3706;49.198;7.064;2022-09-12T08:59:26;2.50;;;2.30;;
7330;SDS011;3706;49.198;7.064;2022-09-12T09:01:55;2.25;;;2.08;;
7330;SDS011;3706;49.198;7.064;2022-09-12T09:04:34;2.22;;;2.03;;
7330;SDS011;3706;49.198;7.064;2022-09-12T09:07:15;2.37;;;2.17;;
7330;SDS011;3706;49.198;7.064;2022-09-12T09:10:06;2.40;;;2.20;;
7330;SDS011;3706;49.198;7.064;2022-09-12T09:12:43;2.53;;;2.00;;
7330;SDS011;3706;49.198;7.064;2022-09-12T09:15:24;2.27;;;2.07;;
7330;SDS011;3706;49.198;7.064;2022-09-12T09:18:07;2.00;;;1.90;;
7330;SDS011;3706;49.198;7.064;2022-09-12T09:20:39;1.87;;;1.77;;
7330;SDS011;3706;49.198;7.064;2022-09-12T09:23:11;2.47;;;2.23;;
7330;SDS011;3706;49.198;7.064;2022-09-12T09:25:43;2.37;;;2.10;;
7330;SDS011;3706;49.198;7.064;2022-09-12T09:28:19;2.30;;;2.10;;
7330;SDS011;3706;49.198;7.064;2022-09-12T09:30:51;2.40;;;2.20;;
7330;SDS011;3706;49.198;7.064;2022-09-12T09:33:20;4.47;;;2.20;;
7330;SDS011;3706;49.198;7.064;2022-09-12T09:35:50;3.53;;;2.03;;
7330;SDS011;3706;49.198;7.064;2022-09-12T09:38:27;2.50;;;2.07;;
7330;SDS011;3706;49.198;7.064;2022-09-12T09:41:09;3.13;;;2.20;;
7330;SDS011;3706;49.198;7.064;2022-09-12T09:43:45;2.93;;;2.40;;
7330;SDS011;3706;49.198;7.064;2022-09-12T09:46:14;3.03;;;1.90;;
7330;SDS011;3706;49.198;7.064;2022-09-12T09:48:42;3.17;;;2.23;;
7330;SDS011;3706;49.198;7.064;2022-09-12T09:51:12;2.30;;;2.10;;
7330;SDS011;3706;49.198;7.064;2022-09-12T09:53:42;17.03;;;2.50;;
7330;SDS011;3706;49.198;7.064;2022-09-12T09:56:14;3.30;;;2.20;;
7330;SDS011;3706;49.198;7.064;2022-09-12T09:58:51;2.40;;;2.20;;
7330;SDS011;3706;49.198;7.064;2022-09-12T10:01:20;3.00;;;2.10;;
7330;SDS011;3706;49.198;7.064;2022-09-12T10:03:48;3.37;;;2.23;;
7330;SDS011;3706;49.198;7.064;2022-09-12T10:06:23;2.40;;;2.20;;
7330;SDS011;3706;49.198;7.064;2022-09-12T10:09:03;5.53;;;2.20;;
7330;SDS011;3706;49.198;7.064;2022-09-12T10:11:33;2.43;;;2.20;;
7330;SDS011;3706;49.198;7.064;2022-09-12T10:14:00;2.67;;;1.93;;
7330;SDS011;3706;49.198;7.064;2022-09-12T10:16:30;2.53;;;2.03;;
7330;SDS011;3706;49.198;7.064;2022-09-12T10:19:19;3.13;;;2.10;;
7330;SDS011;3706;49.198;7.064;2022-09-12T10:21:49;4.10;;;2.10;;
7330;SDS011;3706;49.198;7.064;2022-09-12T10:24:19;2.50;;;1.87;;
7330;SDS011;3706;49.198;7.064;2022-09-12T10:26:49;2.07;;;1.77;;
7330;SDS011;3706;49.198;7.064;2022-09-12T10:29:20;3.60;;;1.70;;
7330;SDS011;3706;49.198;7.064;2022-09-12T10:31:51;1.90;;;1.80;;
7330;SDS011;3706;49.198;7.064;2022-09-12T10:34:21;2.00;;;1.60;;
7330;SDS011;3706;49.198;7.064;2022-09-12T10:36:58;2.83;;;2.10;;
7330;SDS011;3706;49.198;7.064;2022-09-12T10:39:28;2.03;;;1.83;;
7330;SDS011;3706;49.198;7.064;2022-09-12T10:41:56;2.63;;;2.03;;
7330;SDS011;3706;49.198;7.064;2022-09-12T10:44:25;2.73;;;1.43;;
7330;SDS011;3706;49.198;7.064;2022-09-12T10:46:55;1.87;;;1.67;;
7330;SDS011;3706;49.198;7.064;2022-09-12T10:49:24;1.70;;;1.60;;
7330;SDS011;3706;49.198;7.064;2022-09-12T10:51:54;2.23;;;1.60;;
7330;SDS011;3706;49.198;7.064;2022-09-12T10:54:24;1.70;;;1.50;;
7330;SDS011;3706;49.198;7.064;2022-09-12T10:56:58;2.37;;;1.43;;
7330;SDS011;3706;49.198;7.064;2022-09-12T10:59:38;1.33;;;1.23;;
7330;SDS011;3706;49.198;7.064;2022-09-12T11:02:23;2.50;;;1.73;;
7330;SDS011;3706;49.198;7.064;2022-09-12T11:04:55;2.17;;;1.90;;
7330;SDS011;3706;49.198;7.064;2022-09-12T11:07:36;2.83;;;1.70;;
7330;SDS011;3706;49.198;7.064;2022-09-12T11:10:19;4.40;;;1.60;;
7330;SDS011;3706;49.198;7.064;2022-09-12T11:12:56;1.63;;;1.53;;
7330;SDS011;3706;49.198;7.064;2022-09-12T11:15:34;2.97;;;1.70;;
7330;SDS011;3706;49.198;7.064;2022-09-12T11:18:13;2.23;;;1.43;;
7330;SDS011;3706;49.198;7.064;2022-09-12T11:20:52;2.47;;;1.70;;
7330;SDS011;3706;49.198;7.064;2022-09-12T11:26:49;1.30;;;1.20;;
7330;SDS011;3706;49.198;7.064;2022-09-12T11:29:29;1.60;;;1.50;;
7330;SDS011;3706;49.198;7.064;2022-09-12T11:32:09;1.50;;;1.40;;
7330;SDS011;3706;49.198;7.064;2022-09-12T11:34:48;1.40;;;1.30;;
7330;SDS011;3706;49.198;7.064;2022-09-12T11:37:26;1.70;;;1.60;;
7330;SDS011;3706;49.198;7.064;2022-09-12T11:40:19;1.58;;;1.48;;
7330;SDS011;3706;49.198;7.064;2022-09-12T11:42:54;1.50;;;1.40;;
7330;SDS011;3706;49.198;7.064;2022-09-12T11:45:25;1.50;;;1.40;;
7330;SDS011;3706;49.198;7.064;2022-09-12T11:47:56;2.10;;;1.35;;
7330;SDS011;3706;49.198;7.064;2022-09-12T11:50:33;2.28;;;1.30;;
7330;SDS011;3706;49.198;7.064;2022-09-12T11:53:02;1.50;;;1.27;;
7330;SDS011;3706;49.198;7.064;2022-09-12T11:55:42;2.30;;;1.00;;
7330;SDS011;3706;49.198;7.064;2022-09-12T11:58:13;1.20;;;1.10;;
7330;SDS011;3706;49.198;7.064;2022-09-12T12:00:42;1.57;;;1.30;;
7330;SDS011;3706;49.198;7.064;2022-09-12T12:03:13;1.38;;;1.08;;
7330;SDS011;3706;49.198;7.064;2022-09-12T12:05:48;1.20;;;1.10;;
7330;SDS011;3706;49.198;7.064;2022-09-12T12:08:19;1.27;;;1.17;;
7330;SDS011;3706;49.198;7.064;2022-09-12T12:10:48;3.10;;;1.70;;
7330;SDS011;3706;49.198;7.064;2022-09-12T12:13:19;1.48;;;1.38;;
7330;SDS011;3706;49.198;7.064;2022-09-12T12:15:51;2.03;;;1.23;;
7330;SDS011;3706;49.198;7.064;2022-09-12T12:18:21;2.35;;;1.45;;
7330;SDS011;3706;49.198;7.064;2022-09-12T12:20:51;2.45;;;1.35;;
7330;SDS011;3706;49.198;7.064;2022-09-12T12:23:24;1.80;;;1.27;;
7330;SDS011;3706;49.198;7.064;2022-09-12T12:25:54;1.67;;;1.27;;
7330;SDS011;3706;49.198;7.064;2022-09-12T12:31:22;1.13;;;1.02;;
7330;SDS011;3706;49.198;7.064;2022-09-12T12:33:50;1.53;;;1.40;;
7330;SDS011;3706;49.198;7.064;2022-09-12T12:45:46;1.40;;;1.30;;
7330;SDS011;3706;49.198;7.064;2022-09-12T12:48:41;1.67;;;1.20;;
7330;SDS011;3706;49.198;7.064;2022-09-12T12:54:29;1.50;;;1.40;;
7330;SDS011;3706;49.198;7.064;2022-09-12T12:57:02;1.83;;;1.30;;
7330;SDS011;3706;49.198;7.064;2022-09-12T12:59:44;1.23;;;1.13;;
7330;SDS011;3706;49.198;7.064;2022-09-12T13:02:17;3.20;;;1.40;;
7330;SDS011;3706;49.198;7.064;2022-09-12T13:04:50;1.50;;;1.40;;
7330;SDS011;3706;49.198;7.064;2022-09-12T13:07:21;1.33;;;1.23;;
7330;SDS011;3706;49.198;7.064;2022-09-12T13:09:56;1.57;;;1.47;;
7330;SDS011;3706;49.198;7.064;2022-09-12T13:12:25;1.47;;;1.20;;
7330;SDS011;3706;49.198;7.064;2022-09-12T13:14:54;2.30;;;1.20;;
7330;SDS011;3706;49.198;7.064;2022-09-12T13:20:14;2.83;;;1.23;;
7330;SDS011;3706;49.198;7.064;2022-09-12T13:22:46;1.80;;;1.37;;
7330;SDS011;3706;49.198;7.064;2022-09-12T13:25:23;1.20;;;1.13;;
7330;SDS011;3706;49.198;7.064;2022-09-12T13:28:00;1.97;;;1.43;;
7330;SDS011;3706;49.198;7.064;2022-09-12T13:30:29;2.00;;;1.33;;
7330;SDS011;3706;49.198;7.064;2022-09-12T13:33:01;1.30;;;1.20;;
7330;SDS011;3706;49.198;7.064;2022-09-12T13:35:56;1.10;;;1.03;;
7330;SDS011;3706;49.198;7.064;2022-09-12T13:38:45;3.17;;;1.47;;
7330;SDS011;3706;49.198;7.064;2022-09-12T13:41:28;1.10;;;1.00;;
7330;SDS011;3706;49.198;7.064;2022-09-12T13:44:07;1.10;;;1.00;;
7330;SDS011;3706;49.198;7.064;2022-09-12T13:46:37;2.13;;;1.50;;
7330;SDS011;3706;49.198;7.064;2022-09-12T13:49:05;1.30;;;1.20;;
7330;SDS011;3706;49.198;7.064;2022-09-12T13:51:41;1.70;;;1.20;;
7330;SDS011;3706;49.198;7.064;2022-09-12T13:57:42;1.00;;;1.00;;
7330;SDS011;3706;49.198;7.064;2022-09-12T14:00:13;1.60;;;1.20;;
7330;SDS011;3706;49.198;7.064;2022-09-12T14:02:44;1.10;;;1.00;;
7330;SDS011;3706;49.198;7.064;2022-09-12T14:05:17;1.40;;;1.30;;
7330;SDS011;3706;49.198;7.064;2022-09-12T14:07:51;0.90;;;0.90;;
7330;SDS011;3706;49.198;7.064;2022-09-12T14:10:21;2.27;;;1.10;;
7330;SDS011;3706;49.198;7.064;2022-09-12T14:12:53;1.63;;;1.23;;
7330;SDS011;3706;49.198;7.064;2022-09-12T14:15:23;2.20;;;1.10;;
7330;SDS011;3706;49.198;7.064;2022-09-12T14:17:53;3.07;;;1.10;;
7330;SDS011;3706;49.198;7.064;2022-09-12T14:20:25;1.60;;;1.27;;
7330;SDS011;3706;49.198;7.064;2022-09-12T14:22:57;1.30;;;1.20;;
7330;SDS011;3706;49.198;7.064;2022-09-12T14:25:26;0.90;;;0.90;;
7330;SDS011;3706;49.198;7.064;2022-09-12T14:27:57;1.67;;;1.17;;
7330;SDS011;3706;49.198;7.064;2022-09-12T14:30:25;1.20;;;1.10;;
7330;SDS011;3706;49.198;7.064;2022-09-12T14:33:04;3.07;;;1.20;;
7330;SDS011;3706;49.198;7.064;2022-09-12T14:35:43;0.90;;;0.90;;
7330;SDS011;3706;49.198;7.064;2022-09-12T14:38:13;2.67;;;1.17;;
7330;SDS011;3706;49.198;7.064;2022-09-12T14:40:48;0.93;;;0.90;;
7330;SDS011;3706;49.198;7.064;2022-09-12T14:43:26;1.03;;;0.93;;
7330;SDS011;3706;49.198;7.064;2022-09-12T14:45:56;1.00;;;0.90;;
7330;SDS011;3706;49.198;7.064;2022-09-12T14:48:25;2.00;;;1.30;;
7330;SDS011;3706;49.198;7.064;2022-09-12T14:50:57;1.87;;;1.20;;
7330;SDS011;3706;49.198;7.064;2022-09-12T14:53:30;1.83;;;1.40;;
7330;SDS011;3706;49.198;7.064;2022-09-12T14:56:05;1.40;;;1.27;;
7330;SDS011;3706;49.198;7.064;2022-09-12T14:58:40;1.73;;;1.63;;
7330;SDS011;3706;49.198;7.064;2022-09-12T15:04:01;1.57;;;1.40;;
7330;SDS011;3706;49.198;7.064;2022-09-12T15:06:29;1.47;;;1.37;;
7330;SDS011;3706;49.198;7.064;2022-09-12T15:09:00;2.30;;;1.50;;
7330;SDS011;3706;49.198;7.064;2022-09-12T15:11:31;2.50;;;1.33;;
7330;SDS011;3706;49.198;7.064;2022-09-12T15:14:07;3.03;;;1.63;;
7330;SDS011;3706;49.198;7.064;2022-09-12T15:16:41;1.63;;;1.40;;
7330;SDS011;3706;49.198;7.064;2022-09-12T15:19:08;1.90;;;1.70;;
7330;SDS011;3706;49.198;7.064;2022-09-12T15:21:36;2.20;;;2.00;;
7330;SDS011;3706;49.198;7.064;2022-09-12T15:33:58;1.67;;;1.40;;
7330;SDS011;3706;49.198;7.064;2022-09-12T15:36:26;1.80;;;1.40;;
7330;SDS011;3706;49.198;7.064;2022-09-12T15:38:54;3.00;;;1.40;;
7330;SDS011;3706;49.198;7.064;2022-09-12T15:41:23;2.70;;;1.40;;
7330;SDS011;3706;49.198;7.064;2022-09-12T15:43:55;2.60;;;1.60;;
7330;SDS011;3706;49.198;7.064;2022-09-12T15:46:22;1.63;;;1.30;;
7330;SDS011;3706;49.198;7.064;2022-09-12T15:48:50;2.00;;;1.40;;
7330;SDS011;3706;49.198;7.064;2022-09-12T15:51:18;2.13;;;1.50;;
7330;SDS011;3706;49.198;7.064;2022-09-12T15:53:46;1.40;;;1.23;;
7330;SDS011;3706;49.198;7.064;2022-09-12T15:56:14;3.27;;;2.30;;
7330;SDS011;3706;49.198;7.064;2022-09-12T15:58:42;1.20;;;1.10;;
7330;SDS011;3706;49.198;7.064;2022-09-12T16:01:09;1.90;;;1.70;;
7330;SDS011;3706;49.198;7.064;2022-09-12T16:03:38;2.03;;;1.33;;
7330;SDS011;3706;49.198;7.064;2022-09-12T16:06:06;3.10;;;1.50;;
7330;SDS011;3706;49.198;7.064;2022-09-12T16:08:35;3.30;;;1.80;;
7330;SDS011;3706;49.198;7.064;2022-09-12T16:11:02;1.47;;;1.37;;
7330;SDS011;3706;49.198;7.064;2022-09-12T16:13:32;1.60;;;1.50;;
7330;SDS011;3706;49.198;7.064;2022-09-12T16:15:59;1.70;;;1.40;;
7330;SDS011;3706;49.198;7.064;2022-09-12T16:18:27;1.77;;;1.60;;
7330;SDS011;3706;49.198;7.064;2022-09-12T16:20:54;1.40;;;1.30;;
7330;SDS011;3706;49.198;7.064;2022-09-12T16:23:23;1.90;;;1.70;;
7330;SDS011;3706;49.198;7.064;2022-09-12T16:25:56;5.23;;;2.50;;